sensor_id;sensor_type;location;lat;lon;timestamp;P1;durP1;ratioP1;P2;durP2;ratioP2
1258;SDS011;619;51.472;6.628;2022-07-30T00:01:31;6.70;;;6.10;;
1258;SDS011;619;51.472;6.628;2022-07-30T00:03:58;7.53;;;6.70;;
1258;SDS011;619;51.472;6.628;2022-07-30T00:06:26;7.30;;;6.60;;
1258;SDS011;619;51.472;6.628;2022-07-30T00:08:52;7.57;;;6.80;;
1258;SDS011;619;51.472;6.628;2022-07-30T00:11:19;7.00;;;6.30;;
1258;SDS011;619;51.472;6.628;2022-07-30T00:13:46;7.10;;;6.50;;
1258;SDS011;619;51.472;6.628;2022-07-30T00:16:14;7.50;;;6.80;;
1258;SDS011;619;51.472;6.628;2022-07-30T00:18:40;13.97;;;7.20;;
1258;SDS011;619;51.472;6.628;2022-07-30T00:21:05;9.83;;;7.10;;
1258;SDS011;619;51.472;6.628;2022-07-30T00:23:33;7.63;;;7.03;;
1258;SDS011;619;51.472;6.628;2022-07-30T00:25:59;7.67;;;6.63;;
1258;SDS011;619;51.472;6.628;2022-07-30T00:28:25;7.67;;;6.87;;
1258;SDS011;619;51.472;6.628;2022-07-30T00:30:51;6.87;;;6.17;;
1258;SDS011;619;51.472;6.628;2022-07-30T00:33:16;7.67;;;7.00;;
1258;SDS011;619;51.472;6.628;2022-07-30T00:35:42;8.00;;;7.10;;
1258;SDS011;619;51.472;6.628;2022-07-30T00:38:09;8.43;;;6.43;;
1258;SDS011;619;51.472;6.628;2022-07-30T00:40:35;9.43;;;5.83;;
1258;SDS011;619;51.472;6.628;2022-07-30T00:43:00;7.10;;;6.40;;
1258;SDS011;619;51.472;6.628;2022-07-30T00:45:26;7.13;;;6.43;;
1258;SDS011;619;51.472;6.628;2022-07-30T00:47:52;7.20;;;6.50;;
1258;SDS011;619;51.472;6.628;2022-07-30T00:50:17;9.40;;;7.23;;
1258;SDS011;619;51.472;6.628;2022-07-30T00:52:43;10.60;;;7.13;;
1258;SDS011;619;51.472;6.628;2022-07-30T00:55:12;8.50;;;7.27;;
1258;SDS011;619;51.472;6.628;2022-07-30T00:57:41;7.53;;;6.67;;
1258;SDS011;619;51.472;6.628;2022-07-30T01:00:09;7.30;;;6.60;;
1258;SDS011;619;51.472;6.628;2022-07-30T01:02:39;7.43;;;6.20;;
1258;SDS011;619;51.472;6.628;2022-07-30T01:05:05;7.27;;;6.47;;
1258;SDS011;619;51.472;6.628;2022-07-30T01:07:31;7.70;;;6.90;;
1258;SDS011;619;51.472;6.628;2022-07-30T01:09:57;7.90;;;7.20;;
1258;SDS011;619;51.472;6.628;2022-07-30T01:12:24;7.23;;;6.50;;
1258;SDS011;619;51.472;6.628;2022-07-30T01:14:54;10.30;;;7.03;;
1258;SDS011;619;51.472;6.628;2022-07-30T01:17:22;8.13;;;7.20;;
1258;SDS011;619;51.472;6.628;2022-07-30T01:19:51;10.20;;;7.70;;
1258;SDS011;619;51.472;6.628;2022-07-30T01:25:00;9.37;;;8.47;;
1258;SDS011;619;51.472;6.628;2022-07-30T01:27:34;8.23;;;7.50;;
1258;SDS011;619;51.472;6.628;2022-07-30T01:30:04;9.27;;;7.00;;
1258;SDS011;619;51.472;6.628;2022-07-30T01:32:32;8.53;;;7.70;;
1258;SDS011;619;51.472;6.628;2022-07-30T01:35:01;8.40;;;7.70;;
1258;SDS011;619;51.472;6.628;2022-07-30T01:37:30;8.13;;;7.30;;
1258;SDS011;619;51.472;6.628;2022-07-30T01:39:57;10.90;;;8.33;;
1258;SDS011;619;51.472;6.628;2022-07-30T01:42:26;10.13;;;8.30;;
1258;SDS011;619;51.472;6.628;2022-07-30T01:44:53;11.83;;;9.40;;
1258;SDS011;619;51.472;6.628;2022-07-30T01:47:21;8.10;;;7.30;;
1258;SDS011;619;51.472;6.628;2022-07-30T01:49:49;10.30;;;8.30;;
1258;SDS011;619;51.472;6.628;2022-07-30T01:52:16;8.87;;;8.17;;
1258;SDS011;619;51.472;6.628;2022-07-30T01:54:45;10.23;;;7.90;;
1258;SDS011;619;51.472;6.628;2022-07-30T01:57:19;8.90;;;8.10;;
1258;SDS011;619;51.472;6.628;2022-07-30T01:59:46;9.60;;;8.70;;
1258;SDS011;619;51.472;6.628;2022-07-30T02:02:17;9.90;;;8.97;;
1258;SDS011;619;51.472;6.628;2022-07-30T02:04:43;14.43;;;9.70;;
1258;SDS011;619;51.472;6.628;2022-07-30T02:07:11;12.37;;;9.10;;
1258;SDS011;619;51.472;6.628;2022-07-30T02:09:57;10.77;;;9.70;;
1258;SDS011;619;51.472;6.628;2022-07-30T02:12:30;9.63;;;8.43;;
1258;SDS011;619;51.472;6.628;2022-07-30T02:15:01;11.93;;;10.07;;
1258;SDS011;619;51.472;6.628;2022-07-30T02:17:31;10.23;;;8.50;;
1258;SDS011;619;51.472;6.628;2022-07-30T02:20:09;13.37;;;9.50;;
1258;SDS011;619;51.472;6.628;2022-07-30T02:22:38;11.13;;;9.93;;
1258;SDS011;619;51.472;6.628;2022-07-30T02:25:07;14.33;;;9.57;;
1258;SDS011;619;51.472;6.628;2022-07-30T02:27:34;10.20;;;9.30;;
1258;SDS011;619;51.472;6.628;2022-07-30T02:30:06;10.03;;;9.00;;
1258;SDS011;619;51.472;6.628;2022-07-30T02:32:34;10.03;;;8.77;;
1258;SDS011;619;51.472;6.628;2022-07-30T02:35:16;9.80;;;8.90;;
1258;SDS011;619;51.472;6.628;2022-07-30T02:37:47;9.87;;;8.87;;
1258;SDS011;619;51.472;6.628;2022-07-30T02:40:17;9.27;;;8.47;;
1258;SDS011;619;51.472;6.628;2022-07-30T02:42:47;11.53;;;8.90;;
1258;SDS011;619;51.472;6.628;2022-07-30T02:45:15;10.27;;;9.30;;
1258;SDS011;619;51.472;6.628;2022-07-30T02:47:45;13.43;;;8.90;;
1258;SDS011;619;51.472;6.628;2022-07-30T02:50:17;10.60;;;9.50;;
1258;SDS011;619;51.472;6.628;2022-07-30T02:52:44;9.80;;;8.90;;
1258;SDS011;619;51.472;6.628;2022-07-30T02:55:12;11.27;;;10.10;;
1258;SDS011;619;51.472;6.628;2022-07-30T02:57:40;9.53;;;8.70;;
1258;SDS011;619;51.472;6.628;2022-07-30T03:00:07;9.50;;;8.70;;
1258;SDS011;619;51.472;6.628;2022-07-30T03:02:36;10.23;;;9.17;;
1258;SDS011;619;51.472;6.628;2022-07-30T03:05:06;11.30;;;8.70;;
1258;SDS011;619;51.472;6.628;2022-07-30T03:07:33;12.43;;;9.10;;
1258;SDS011;619;51.472;6.628;2022-07-30T03:10:00;10.97;;;9.93;;
1258;SDS011;619;51.472;6.628;2022-07-30T03:12:28;10.83;;;9.80;;
1258;SDS011;619;51.472;6.628;2022-07-30T03:14:55;13.50;;;10.50;;
1258;SDS011;619;51.472;6.628;2022-07-30T03:17:22;10.13;;;9.23;;
1258;SDS011;619;51.472;6.628;2022-07-30T03:19:50;10.93;;;9.97;;
1258;SDS011;619;51.472;6.628;2022-07-30T03:22:18;10.93;;;9.80;;
1258;SDS011;619;51.472;6.628;2022-07-30T03:24:46;14.10;;;10.07;;
1258;SDS011;619;51.472;6.628;2022-07-30T03:27:13;10.97;;;9.97;;
1258;SDS011;619;51.472;6.628;2022-07-30T03:29:40;11.57;;;10.40;;
1258;SDS011;619;51.472;6.628;2022-07-30T03:32:10;12.20;;;10.90;;
1258;SDS011;619;51.472;6.628;2022-07-30T03:34:36;11.87;;;10.80;;
1258;SDS011;619;51.472;6.628;2022-07-30T03:37:03;11.50;;;10.03;;
1258;SDS011;619;51.472;6.628;2022-07-30T03:39:31;12.37;;;11.30;;
1258;SDS011;619;51.472;6.628;2022-07-30T03:41:58;12.50;;;10.20;;
1258;SDS011;619;51.472;6.628;2022-07-30T03:44:25;12.40;;;11.20;;
1258;SDS011;619;51.472;6.628;2022-07-30T03:46:53;12.37;;;10.60;;
1258;SDS011;619;51.472;6.628;2022-07-30T03:49:22;11.53;;;9.83;;
1258;SDS011;619;51.472;6.628;2022-07-30T03:51:53;15.70;;;12.33;;
1258;SDS011;619;51.472;6.628;2022-07-30T03:54:20;12.07;;;10.87;;
1258;SDS011;619;51.472;6.628;2022-07-30T03:56:47;16.63;;;11.80;;
1258;SDS011;619;51.472;6.628;2022-07-30T03:59:15;12.40;;;11.20;;
1258;SDS011;619;51.472;6.628;2022-07-30T04:01:41;15.80;;;12.63;;
1258;SDS011;619;51.472;6.628;2022-07-30T04:04:07;13.10;;;12.00;;
1258;SDS011;619;51.472;6.628;2022-07-30T04:06:34;11.33;;;10.33;;
1258;SDS011;619;51.472;6.628;2022-07-30T04:09:06;12.50;;;11.07;;
1258;SDS011;619;51.472;6.628;2022-07-30T04:11:33;12.40;;;11.30;;
1258;SDS011;619;51.472;6.628;2022-07-30T04:14:02;13.73;;;12.27;;
1258;SDS011;619;51.472;6.628;2022-07-30T04:16:46;16.63;;;12.00;;
1258;SDS011;619;51.472;6.628;2022-07-30T04:19:34;14.17;;;12.90;;
1258;SDS011;619;51.472;6.628;2022-07-30T04:22:04;15.43;;;13.57;;
1258;SDS011;619;51.472;6.628;2022-07-30T04:24:31;14.43;;;13.00;;
1258;SDS011;619;51.472;6.628;2022-07-30T04:26:59;17.00;;;14.47;;
1258;SDS011;619;51.472;6.628;2022-07-30T04:29:25;16.83;;;14.90;;
1258;SDS011;619;51.472;6.628;2022-07-30T04:31:53;21.40;;;16.80;;
1258;SDS011;619;51.472;6.628;2022-07-30T04:34:20;22.47;;;16.27;;
1258;SDS011;619;51.472;6.628;2022-07-30T04:36:46;20.33;;;17.70;;
1258;SDS011;619;51.472;6.628;2022-07-30T04:39:12;19.37;;;17.20;;
1258;SDS011;619;51.472;6.628;2022-07-30T04:41:40;20.00;;;17.90;;
1258;SDS011;619;51.472;6.628;2022-07-30T04:44:05;27.83;;;19.13;;
1258;SDS011;619;51.472;6.628;2022-07-30T04:46:31;25.13;;;17.93;;
1258;SDS011;619;51.472;6.628;2022-07-30T04:48:57;19.43;;;17.53;;
1258;SDS011;619;51.472;6.628;2022-07-30T04:51:25;19.37;;;17.13;;
1258;SDS011;619;51.472;6.628;2022-07-30T04:53:56;19.00;;;17.07;;
1258;SDS011;619;51.472;6.628;2022-07-30T04:56:25;19.10;;;17.20;;
1258;SDS011;619;51.472;6.628;2022-07-30T04:58:54;18.27;;;16.63;;
1258;SDS011;619;51.472;6.628;2022-07-30T05:01:21;22.93;;;18.70;;
1258;SDS011;619;51.472;6.628;2022-07-30T05:03:49;23.17;;;17.47;;
1258;SDS011;619;51.472;6.628;2022-07-30T05:06:16;22.37;;;18.13;;
1258;SDS011;619;51.472;6.628;2022-07-30T05:08:44;23.57;;;18.80;;
1258;SDS011;619;51.472;6.628;2022-07-30T05:11:12;25.00;;;18.53;;
1258;SDS011;619;51.472;6.628;2022-07-30T05:13:42;20.47;;;17.27;;
1258;SDS011;619;51.472;6.628;2022-07-30T05:16:12;21.17;;;18.93;;
1258;SDS011;619;51.472;6.628;2022-07-30T05:18:38;27.83;;;19.20;;
1258;SDS011;619;51.472;6.628;2022-07-30T05:21:04;21.70;;;17.67;;
1258;SDS011;619;51.472;6.628;2022-07-30T05:23:32;21.07;;;18.43;;
1258;SDS011;619;51.472;6.628;2022-07-30T05:26:00;26.43;;;18.83;;
1258;SDS011;619;51.472;6.628;2022-07-30T05:28:26;21.43;;;19.20;;
1258;SDS011;619;51.472;6.628;2022-07-30T05:30:52;22.50;;;18.60;;
1258;SDS011;619;51.472;6.628;2022-07-30T05:33:19;25.83;;;21.07;;
1258;SDS011;619;51.472;6.628;2022-07-30T05:35:46;23.00;;;20.70;;
1258;SDS011;619;51.472;6.628;2022-07-30T05:38:15;24.13;;;21.57;;
1258;SDS011;619;51.472;6.628;2022-07-30T05:40:41;23.03;;;20.83;;
1258;SDS011;619;51.472;6.628;2022-07-30T05:43:08;24.47;;;19.70;;
1258;SDS011;619;51.472;6.628;2022-07-30T05:45:34;21.87;;;19.73;;
1258;SDS011;619;51.472;6.628;2022-07-30T05:48:02;24.20;;;21.90;;
1258;SDS011;619;51.472;6.628;2022-07-30T05:50:28;22.67;;;20.00;;
1258;SDS011;619;51.472;6.628;2022-07-30T05:52:56;24.03;;;21.80;;
1258;SDS011;619;51.472;6.628;2022-07-30T05:55:24;22.70;;;20.50;;
1258;SDS011;619;51.472;6.628;2022-07-30T05:57:50;25.10;;;22.73;;
1258;SDS011;619;51.472;6.628;2022-07-30T06:00:16;22.57;;;20.00;;
1258;SDS011;619;51.472;6.628;2022-07-30T06:02:44;22.17;;;20.07;;
1258;SDS011;619;51.472;6.628;2022-07-30T06:05:09;21.43;;;19.47;;
1258;SDS011;619;51.472;6.628;2022-07-30T06:07:39;20.77;;;18.77;;
1258;SDS011;619;51.472;6.628;2022-07-30T06:10:07;20.63;;;18.50;;
1258;SDS011;619;51.472;6.628;2022-07-30T06:12:33;23.53;;;18.27;;
1258;SDS011;619;51.472;6.628;2022-07-30T06:14:59;19.77;;;17.57;;
1258;SDS011;619;51.472;6.628;2022-07-30T06:17:26;19.50;;;17.70;;
1258;SDS011;619;51.472;6.628;2022-07-30T06:19:52;19.70;;;17.90;;
1258;SDS011;619;51.472;6.628;2022-07-30T06:22:18;18.23;;;16.50;;
1258;SDS011;619;51.472;6.628;2022-07-30T06:24:46;17.53;;;16.03;;
1258;SDS011;619;51.472;6.628;2022-07-30T06:27:12;16.87;;;15.27;;
1258;SDS011;619;51.472;6.628;2022-07-30T06:29:37;17.70;;;16.13;;
1258;SDS011;619;51.472;6.628;2022-07-30T06:32:05;18.90;;;17.10;;
1258;SDS011;619;51.472;6.628;2022-07-30T06:34:36;18.10;;;16.60;;
1258;SDS011;619;51.472;6.628;2022-07-30T06:37:01;23.40;;;16.43;;
1258;SDS011;619;51.472;6.628;2022-07-30T06:39:29;17.90;;;16.30;;
1258;SDS011;619;51.472;6.628;2022-07-30T06:41:57;16.70;;;15.00;;
1258;SDS011;619;51.472;6.628;2022-07-30T06:44:22;17.60;;;15.23;;
1258;SDS011;619;51.472;6.628;2022-07-30T06:46:48;17.10;;;14.87;;
1258;SDS011;619;51.472;6.628;2022-07-30T06:49:14;16.27;;;14.57;;
1258;SDS011;619;51.472;6.628;2022-07-30T06:51:44;15.40;;;13.90;;
1258;SDS011;619;51.472;6.628;2022-07-30T06:54:10;15.30;;;13.90;;
1258;SDS011;619;51.472;6.628;2022-07-30T06:56:39;16.23;;;14.63;;
1258;SDS011;619;51.472;6.628;2022-07-30T06:59:04;16.57;;;14.90;;
1258;SDS011;619;51.472;6.628;2022-07-30T07:01:30;14.90;;;13.60;;
1258;SDS011;619;51.472;6.628;2022-07-30T07:04:00;16.27;;;13.27;;
1258;SDS011;619;51.472;6.628;2022-07-30T07:06:30;14.47;;;12.97;;
1258;SDS011;619;51.472;6.628;2022-07-30T07:08:56;13.93;;;12.43;;
1258;SDS011;619;51.472;6.628;2022-07-30T07:11:22;14.57;;;13.10;;
1258;SDS011;619;51.472;6.628;2022-07-30T07:13:50;12.40;;;11.20;;
1258;SDS011;619;51.472;6.628;2022-07-30T07:16:18;14.20;;;11.23;;
1258;SDS011;619;51.472;6.628;2022-07-30T07:18:49;13.60;;;12.30;;
1258;SDS011;619;51.472;6.628;2022-07-30T07:21:16;12.57;;;11.33;;
1258;SDS011;619;51.472;6.628;2022-07-30T07:23:44;12.17;;;11.03;;
1258;SDS011;619;51.472;6.628;2022-07-30T07:26:15;14.17;;;12.77;;
1258;SDS011;619;51.472;6.628;2022-07-30T07:28:41;14.10;;;12.10;;
1258;SDS011;619;51.472;6.628;2022-07-30T07:31:07;14.37;;;12.97;;
1258;SDS011;619;51.472;6.628;2022-07-30T07:33:36;16.07;;;12.10;;
1258;SDS011;619;51.472;6.628;2022-07-30T07:36:05;14.53;;;13.10;;
1258;SDS011;619;51.472;6.628;2022-07-30T07:38:31;12.20;;;11.00;;
1258;SDS011;619;51.472;6.628;2022-07-30T07:40:56;14.20;;;12.90;;
1258;SDS011;619;51.472;6.628;2022-07-30T07:43:22;13.43;;;11.57;;
1258;SDS011;619;51.472;6.628;2022-07-30T07:45:49;14.40;;;12.90;;
1258;SDS011;619;51.472;6.628;2022-07-30T07:48:16;13.70;;;12.40;;
1258;SDS011;619;51.472;6.628;2022-07-30T07:50:42;13.40;;;11.73;;
1258;SDS011;619;51.472;6.628;2022-07-30T07:53:10;18.33;;;12.70;;
1258;SDS011;619;51.472;6.628;2022-07-30T07:55:39;13.43;;;12.20;;
1258;SDS011;619;51.472;6.628;2022-07-30T07:58:07;16.00;;;11.30;;
1258;SDS011;619;51.472;6.628;2022-07-30T08:00:35;12.30;;;11.00;;
1258;SDS011;619;51.472;6.628;2022-07-30T08:03:03;14.50;;;13.10;;
1258;SDS011;619;51.472;6.628;2022-07-30T08:05:29;14.87;;;13.27;;
1258;SDS011;619;51.472;6.628;2022-07-30T08:07:55;13.17;;;12.00;;
1258;SDS011;619;51.472;6.628;2022-07-30T08:10:21;15.97;;;11.80;;
1258;SDS011;619;51.472;6.628;2022-07-30T08:12:49;13.50;;;12.20;;
1258;SDS011;619;51.472;6.628;2022-07-30T08:15:15;14.80;;;11.70;;
1258;SDS011;619;51.472;6.628;2022-07-30T08:17:43;12.27;;;10.83;;
1258;SDS011;619;51.472;6.628;2022-07-30T08:20:13;11.20;;;9.90;;
1258;SDS011;619;51.472;6.628;2022-07-30T08:22:40;12.87;;;11.60;;
1258;SDS011;619;51.472;6.628;2022-07-30T08:25:06;11.63;;;10.43;;
1258;SDS011;619;51.472;6.628;2022-07-30T08:27:37;11.77;;;10.70;;
1258;SDS011;619;51.472;6.628;2022-07-30T08:30:03;11.50;;;9.30;;
1258;SDS011;619;51.472;6.628;2022-07-30T08:32:32;14.07;;;10.50;;
1258;SDS011;619;51.472;6.628;2022-07-30T08:35:01;11.33;;;9.83;;
1258;SDS011;619;51.472;6.628;2022-07-30T08:37:30;9.70;;;8.70;;
1258;SDS011;619;51.472;6.628;2022-07-30T08:39:55;10.47;;;9.47;;
1258;SDS011;619;51.472;6.628;2022-07-30T08:42:21;10.40;;;9.30;;
1258;SDS011;619;51.472;6.628;2022-07-30T08:44:51;12.43;;;8.40;;
1258;SDS011;619;51.472;6.628;2022-07-30T08:47:22;9.10;;;8.23;;
1258;SDS011;619;51.472;6.628;2022-07-30T08:49:57;10.50;;;7.37;;
1258;SDS011;619;51.472;6.628;2022-07-30T08:52:31;10.53;;;9.43;;
1258;SDS011;619;51.472;6.628;2022-07-30T08:55:00;10.00;;;9.10;;
1258;SDS011;619;51.472;6.628;2022-07-30T08:57:29;10.60;;;8.80;;
1258;SDS011;619;51.472;6.628;2022-07-30T08:59:59;9.50;;;8.57;;
1258;SDS011;619;51.472;6.628;2022-07-30T09:02:29;13.23;;;8.33;;
1258;SDS011;619;51.472;6.628;2022-07-30T09:04:55;11.70;;;7.67;;
1258;SDS011;619;51.472;6.628;2022-07-30T09:07:22;9.77;;;8.77;;
1258;SDS011;619;51.472;6.628;2022-07-30T09:09:47;9.87;;;8.87;;
1258;SDS011;619;51.472;6.628;2022-07-30T09:18:10;7.60;;;6.33;;
1258;SDS011;619;51.472;6.628;2022-07-30T09:20:29;7.00;;;5.90;;
1258;SDS011;619;51.472;6.628;2022-07-30T09:22:59;7.80;;;7.00;;
1258;SDS011;619;51.472;6.628;2022-07-30T09:25:35;8.10;;;6.93;;
1258;SDS011;619;51.472;6.628;2022-07-30T09:28:05;8.57;;;7.17;;
1258;SDS011;619;51.472;6.628;2022-07-30T09:30:54;6.77;;;5.97;;
1258;SDS011;619;51.472;6.628;2022-07-30T09:33:33;8.23;;;6.00;;
1258;SDS011;619;51.472;6.628;2022-07-30T09:35:59;8.50;;;5.40;;
1258;SDS011;619;51.472;6.628;2022-07-30T09:38:27;8.63;;;5.77;;
1258;SDS011;619;51.472;6.628;2022-07-30T09:41:07;7.57;;;5.57;;
1258;SDS011;619;51.472;6.628;2022-07-30T09:43:41;6.63;;;5.07;;
1258;SDS011;619;51.472;6.628;2022-07-30T09:46:07;10.00;;;5.07;;
1258;SDS011;619;51.472;6.628;2022-07-30T09:48:38;6.50;;;4.50;;
1258;SDS011;619;51.472;6.628;2022-07-30T09:51:04;7.00;;;4.80;;
1258;SDS011;619;51.472;6.628;2022-07-30T09:53:30;6.53;;;4.33;;
1258;SDS011;619;51.472;6.628;2022-07-30T09:55:56;5.03;;;4.10;;
1258;SDS011;619;51.472;6.628;2022-07-30T09:58:23;6.70;;;3.97;;
1258;SDS011;619;51.472;6.628;2022-07-30T10:01:01;7.13;;;4.73;;
1258;SDS011;619;51.472;6.628;2022-07-30T10:03:29;6.27;;;3.60;;
1258;SDS011;619;51.472;6.628;2022-07-30T10:05:58;4.40;;;3.80;;
1258;SDS011;619;51.472;6.628;2022-07-30T10:11:21;5.93;;;4.03;;
1258;SDS011;619;51.472;6.628;2022-07-30T10:13:54;5.63;;;3.87;;
1258;SDS011;619;51.472;6.628;2022-07-30T10:16:21;4.40;;;4.00;;
1258;SDS011;619;51.472;6.628;2022-07-30T10:18:49;4.30;;;3.43;;
1258;SDS011;619;51.472;6.628;2022-07-30T10:21:15;6.70;;;3.63;;
1258;SDS011;619;51.472;6.628;2022-07-30T10:23:41;6.33;;;3.87;;
1258;SDS011;619;51.472;6.628;2022-07-30T10:26:08;3.73;;;3.33;;
1258;SDS011;619;51.472;6.628;2022-07-30T10:28:36;4.83;;;3.63;;
1258;SDS011;619;51.472;6.628;2022-07-30T10:31:05;4.33;;;3.93;;
1258;SDS011;619;51.472;6.628;2022-07-30T10:33:34;6.37;;;3.90;;
1258;SDS011;619;51.472;6.628;2022-07-30T10:36:01;4.60;;;4.10;;
1258;SDS011;619;51.472;6.628;2022-07-30T10:38:28;4.63;;;3.70;;
1258;SDS011;619;51.472;6.628;2022-07-30T10:40:59;6.80;;;4.93;;
1258;SDS011;619;51.472;6.628;2022-07-30T10:48:44;8.63;;;5.40;;
1258;SDS011;619;51.472;6.628;2022-07-30T10:51:12;7.20;;;5.47;;
1258;SDS011;619;51.472;6.628;2022-07-30T11:01:23;5.57;;;4.70;;
1258;SDS011;619;51.472;6.628;2022-07-30T11:06:48;6.23;;;5.63;;
1258;SDS011;619;51.472;6.628;2022-07-30T11:09:36;6.13;;;4.90;;
1258;SDS011;619;51.472;6.628;2022-07-30T11:12:06;7.60;;;4.80;;
1258;SDS011;619;51.472;6.628;2022-07-30T11:17:15;6.33;;;5.40;;
1258;SDS011;619;51.472;6.628;2022-07-30T11:22:29;5.20;;;4.80;;
1258;SDS011;619;51.472;6.628;2022-07-30T11:25:03;4.27;;;3.10;;
1258;SDS011;619;51.472;6.628;2022-07-30T11:48:40;4.77;;;4.30;;
1258;SDS011;619;51.472;6.628;2022-07-30T11:51:07;3.97;;;3.57;;
1258;SDS011;619;51.472;6.628;2022-07-30T11:53:35;3.43;;;3.13;;
1258;SDS011;619;51.472;6.628;2022-07-30T11:56:03;6.13;;;4.07;;
1258;SDS011;619;51.472;6.628;2022-07-30T11:58:30;6.20;;;4.17;;
1258;SDS011;619;51.472;6.628;2022-07-30T12:03:38;5.73;;;4.37;;
1258;SDS011;619;51.472;6.628;2022-07-30T12:06:08;7.20;;;6.33;;
1258;SDS011;619;51.472;6.628;2022-07-30T12:08:41;5.23;;;4.70;;
1258;SDS011;619;51.472;6.628;2022-07-30T12:11:08;7.90;;;5.40;;
1258;SDS011;619;51.472;6.628;2022-07-30T12:13:40;6.50;;;4.90;;
1258;SDS011;619;51.472;6.628;2022-07-30T12:16:12;6.10;;;4.50;;
1258;SDS011;619;51.472;6.628;2022-07-30T12:18:40;4.83;;;4.37;;
1258;SDS011;619;51.472;6.628;2022-07-30T12:21:09;7.90;;;4.47;;
1258;SDS011;619;51.472;6.628;2022-07-30T12:23:40;4.40;;;4.00;;
1258;SDS011;619;51.472;6.628;2022-07-30T12:26:07;4.20;;;3.77;;
1258;SDS011;619;51.472;6.628;2022-07-30T12:28:43;4.70;;;4.40;;
1258;SDS011;619;51.472;6.628;2022-07-30T12:31:18;5.80;;;4.63;;
1258;SDS011;619;51.472;6.628;2022-07-30T12:33:43;4.57;;;4.17;;
1258;SDS011;619;51.472;6.628;2022-07-30T12:36:19;5.90;;;5.40;;
1258;SDS011;619;51.472;6.628;2022-07-30T12:38:58;7.10;;;5.83;;
1258;SDS011;619;51.472;6.628;2022-07-30T12:41:44;5.63;;;5.03;;
1258;SDS011;619;51.472;6.628;2022-07-30T12:44:32;5.23;;;4.60;;
1258;SDS011;619;51.472;6.628;2022-07-30T12:46:59;6.77;;;4.07;;
1258;SDS011;619;51.472;6.628;2022-07-30T12:49:31;5.27;;;4.30;;
1258;SDS011;619;51.472;6.628;2022-07-30T12:51:59;5.13;;;3.97;;
1258;SDS011;619;51.472;6.628;2022-07-30T12:54:27;5.17;;;3.90;;
1258;SDS011;619;51.472;6.628;2022-07-30T12:57:00;4.80;;;4.23;;
1258;SDS011;619;51.472;6.628;2022-07-30T12:59:32;4.47;;;3.20;;
1258;SDS011;619;51.472;6.628;2022-07-30T13:02:01;3.10;;;2.80;;
1258;SDS011;619;51.472;6.628;2022-07-30T13:04:27;5.97;;;3.30;;
1258;SDS011;619;51.472;6.628;2022-07-30T13:07:09;5.43;;;2.93;;
1258;SDS011;619;51.472;6.628;2022-07-30T13:09:36;3.60;;;2.73;;
1258;SDS011;619;51.472;6.628;2022-07-30T13:12:10;3.57;;;2.30;;
1258;SDS011;619;51.472;6.628;2022-07-30T13:14:36;4.03;;;2.53;;
1258;SDS011;619;51.472;6.628;2022-07-30T13:17:02;2.43;;;2.07;;
1258;SDS011;619;51.472;6.628;2022-07-30T13:19:31;1.90;;;1.60;;
1258;SDS011;619;51.472;6.628;2022-07-30T13:21:56;2.13;;;1.73;;
1258;SDS011;619;51.472;6.628;2022-07-30T13:24:24;3.40;;;2.37;;
1258;SDS011;619;51.472;6.628;2022-07-30T13:26:52;3.67;;;2.73;;
1258;SDS011;619;51.472;6.628;2022-07-30T13:29:20;2.97;;;2.50;;
1258;SDS011;619;51.472;6.628;2022-07-30T13:31:45;3.43;;;2.70;;
1258;SDS011;619;51.472;6.628;2022-07-30T13:34:11;7.00;;;2.53;;
1258;SDS011;619;51.472;6.628;2022-07-30T13:36:39;3.93;;;2.40;;
1258;SDS011;619;51.472;6.628;2022-07-30T13:39:07;3.00;;;2.70;;
1258;SDS011;619;51.472;6.628;2022-07-30T13:41:33;4.10;;;2.10;;
1258;SDS011;619;51.472;6.628;2022-07-30T13:44:00;2.50;;;1.83;;
1258;SDS011;619;51.472;6.628;2022-07-30T13:46:27;2.73;;;1.90;;
1258;SDS011;619;51.472;6.628;2022-07-30T13:48:58;2.80;;;2.07;;
1258;SDS011;619;51.472;6.628;2022-07-30T13:51:26;4.03;;;1.90;;
1258;SDS011;619;51.472;6.628;2022-07-30T13:53:56;3.20;;;2.23;;
1258;SDS011;619;51.472;6.628;2022-07-30T13:56:25;2.43;;;1.70;;
1258;SDS011;619;51.472;6.628;2022-07-30T13:58:53;2.17;;;1.97;;
1258;SDS011;619;51.472;6.628;2022-07-30T14:01:21;2.63;;;2.33;;
1258;SDS011;619;51.472;6.628;2022-07-30T14:03:51;4.43;;;2.43;;
1258;SDS011;619;51.472;6.628;2022-07-30T14:06:22;3.07;;;2.77;;
1258;SDS011;619;51.472;6.628;2022-07-30T14:08:47;2.70;;;2.50;;
1258;SDS011;619;51.472;6.628;2022-07-30T14:11:15;4.03;;;2.37;;
1258;SDS011;619;51.472;6.628;2022-07-30T14:13:41;3.83;;;2.40;;
1258;SDS011;619;51.472;6.628;2022-07-30T14:16:07;3.20;;;2.30;;
1258;SDS011;619;51.472;6.628;2022-07-30T14:18:33;6.17;;;2.63;;
1258;SDS011;619;51.472;6.628;2022-07-30T14:21:05;4.53;;;2.53;;
1258;SDS011;619;51.472;6.628;2022-07-30T14:23:38;2.63;;;1.90;;
1258;SDS011;619;51.472;6.628;2022-07-30T14:26:06;2.73;;;2.20;;
1258;SDS011;619;51.472;6.628;2022-07-30T14:28:32;4.03;;;2.10;;
1258;SDS011;619;51.472;6.628;2022-07-30T14:30:57;3.10;;;2.10;;
1258;SDS011;619;51.472;6.628;2022-07-30T14:33:25;3.87;;;2.13;;
1258;SDS011;619;51.472;6.628;2022-07-30T14:35:51;2.10;;;1.90;;
1258;SDS011;619;51.472;6.628;2022-07-30T14:38:19;4.73;;;1.83;;
1258;SDS011;619;51.472;6.628;2022-07-30T14:40:44;2.50;;;1.90;;
1258;SDS011;619;51.472;6.628;2022-07-30T14:43:13;3.83;;;1.80;;
1258;SDS011;619;51.472;6.628;2022-07-30T14:45:41;3.30;;;2.27;;
1258;SDS011;619;51.472;6.628;2022-07-30T14:48:14;3.30;;;1.90;;
1258;SDS011;619;51.472;6.628;2022-07-30T14:50:40;3.83;;;1.90;;
1258;SDS011;619;51.472;6.628;2022-07-30T14:53:06;3.83;;;1.97;;
1258;SDS011;619;51.472;6.628;2022-07-30T14:55:32;2.77;;;2.00;;
1258;SDS011;619;51.472;6.628;2022-07-30T14:57:57;6.77;;;2.03;;
1258;SDS011;619;51.472;6.628;2022-07-30T15:00:25;2.10;;;1.90;;
1258;SDS011;619;51.472;6.628;2022-07-30T15:02:55;4.00;;;2.40;;
1258;SDS011;619;51.472;6.628;2022-07-30T15:05:23;3.23;;;1.77;;
1258;SDS011;619;51.472;6.628;2022-07-30T15:07:49;2.50;;;1.70;;
1258;SDS011;619;51.472;6.628;2022-07-30T15:10:14;2.23;;;2.00;;
1258;SDS011;619;51.472;6.628;2022-07-30T15:12:40;7.97;;;2.80;;
1258;SDS011;619;51.472;6.628;2022-07-30T15:15:08;3.40;;;1.90;;
1258;SDS011;619;51.472;6.628;2022-07-30T15:17:34;3.00;;;2.23;;
1258;SDS011;619;51.472;6.628;2022-07-30T15:20:04;2.50;;;2.17;;
1258;SDS011;619;51.472;6.628;2022-07-30T15:22:32;3.60;;;2.50;;
1258;SDS011;619;51.472;6.628;2022-07-30T15:24:59;3.73;;;2.67;;
1258;SDS011;619;51.472;6.628;2022-07-30T15:27:27;3.37;;;2.20;;
1258;SDS011;619;51.472;6.628;2022-07-30T15:29:57;5.83;;;2.60;;
1258;SDS011;619;51.472;6.628;2022-07-30T15:32:23;3.47;;;2.33;;
1258;SDS011;619;51.472;6.628;2022-07-30T15:34:49;4.10;;;2.10;;
1258;SDS011;619;51.472;6.628;2022-07-30T15:37:15;3.27;;;1.93;;
1258;SDS011;619;51.472;6.628;2022-07-30T15:39:45;3.20;;;2.17;;
1258;SDS011;619;51.472;6.628;2022-07-30T15:42:12;2.80;;;2.27;;
1258;SDS011;619;51.472;6.628;2022-07-30T15:44:38;2.17;;;1.70;;
1258;SDS011;619;51.472;6.628;2022-07-30T15:47:06;4.97;;;2.40;;
1258;SDS011;619;51.472;6.628;2022-07-30T15:49:32;5.00;;;2.50;;
1258;SDS011;619;51.472;6.628;2022-07-30T15:51:58;4.30;;;2.50;;
1258;SDS011;619;51.472;6.628;2022-07-30T15:54:26;3.03;;;1.83;;
1258;SDS011;619;51.472;6.628;2022-07-30T15:56:52;3.20;;;2.30;;
1258;SDS011;619;51.472;6.628;2022-07-30T15:59:21;7.20;;;2.60;;
1258;SDS011;619;51.472;6.628;2022-07-30T16:01:46;3.13;;;2.57;;
1258;SDS011;619;51.472;6.628;2022-07-30T16:04:15;3.43;;;2.20;;
1258;SDS011;619;51.472;6.628;2022-07-30T16:06:43;4.63;;;2.13;;
1258;SDS011;619;51.472;6.628;2022-07-30T16:09:16;3.67;;;2.80;;
1258;SDS011;619;51.472;6.628;2022-07-30T16:11:41;3.43;;;2.50;;
1258;SDS011;619;51.472;6.628;2022-07-30T16:14:13;3.40;;;2.53;;
1258;SDS011;619;51.472;6.628;2022-07-30T16:16:44;6.07;;;2.20;;
1258;SDS011;619;51.472;6.628;2022-07-30T16:19:12;4.20;;;2.30;;
1258;SDS011;619;51.472;6.628;2022-07-30T16:21:42;6.23;;;2.90;;